sensor_id;sensor_type;location;lat;lon;timestamp;P1;durP1;ratioP1;P2;durP2;ratioP2
58460;SDS011;45558;37.752;-97.822;2023-02-19T00:01:09;16.88;;;1.58;;
58460;SDS011;45558;37.752;-97.822;2023-02-19T00:03:37;11.45;;;1.00;;
58460;SDS011;45558;37.752;-97.822;2023-02-19T00:06:04;12.95;;;1.02;;
58460;SDS011;45558;37.752;-97.822;2023-02-19T00:08:31;12.30;;;1.23;;
58460;SDS011;45558;37.752;-97.822;2023-02-19T00:11:04;7.78;;;0.95;;
58460;SDS011;45558;37.752;-97.822;2023-02-19T00:13:35;15.55;;;1.95;;
58460;SDS011;45558;37.752;-97.822;2023-02-19T00:16:05;11.50;;;1.13;;
58460;SDS011;45558;37.752;-97.822;2023-02-19T00:18:35;13.35;;;1.40;;
58460;SDS011;45558;37.752;-97.822;2023-02-19T00:21:01;5.80;;;1.55;;
58460;SDS011;45558;37.752;-97.822;2023-02-19T00:23:27;10.27;;;0.98;;
58460;SDS011;45558;37.752;-97.822;2023-02-19T00:25:53;11.43;;;1.55;;
58460;SDS011;45558;37.752;-97.822;2023-02-19T00:28:19;9.27;;;1.00;;
58460;SDS011;45558;37.752;-97.822;2023-02-19T00:30:45;9.50;;;1.35;;
58460;SDS011;45558;37.752;-97.822;2023-02-19T00:33:11;9.68;;;1.95;;
58460;SDS011;45558;37.752;-97.822;2023-02-19T00:35:37;8.50;;;0.70;;
58460;SDS011;45558;37.752;-97.822;2023-02-19T00:38:03;8.98;;;0.70;;
58460;SDS011;45558;37.752;-97.822;2023-02-19T00:40:30;13.15;;;1.58;;
58460;SDS011;45558;37.752;-97.822;2023-02-19T00:42:56;8.45;;;0.65;;
58460;SDS011;45558;37.752;-97.822;2023-02-19T00:45:22;13.90;;;1.05;;
58460;SDS011;45558;37.752;-97.822;2023-02-19T00:47:48;7.30;;;0.85;;
58460;SDS011;45558;37.752;-97.822;2023-02-19T00:50:14;5.70;;;0.82;;
58460;SDS011;45558;37.752;-97.822;2023-02-19T00:52:40;9.35;;;0.90;;
58460;SDS011;45558;37.752;-97.822;2023-02-19T00:55:05;9.23;;;0.70;;
58460;SDS011;45558;37.752;-97.822;2023-02-19T00:57:31;11.15;;;0.95;;
58460;SDS011;45558;37.752;-97.822;2023-02-19T00:59:57;6.88;;;1.02;;
58460;SDS011;45558;37.752;-97.822;2023-02-19T01:02:23;10.82;;;0.80;;
58460;SDS011;45558;37.752;-97.822;2023-02-19T01:04:51;11.65;;;0.75;;
58460;SDS011;45558;37.752;-97.822;2023-02-19T01:07:17;8.13;;;0.65;;
58460;SDS011;45558;37.752;-97.822;2023-02-19T01:09:43;4.55;;;0.82;;
58460;SDS011;45558;37.752;-97.822;2023-02-19T01:12:08;9.02;;;1.88;;
58460;SDS011;45558;37.752;-97.822;2023-02-19T01:14:36;12.63;;;1.33;;
58460;SDS011;45558;37.752;-97.822;2023-02-19T01:17:02;10.77;;;0.80;;
58460;SDS011;45558;37.752;-97.822;2023-02-19T01:19:28;8.25;;;0.95;;
58460;SDS011;45558;37.752;-97.822;2023-02-19T01:21:54;9.35;;;1.23;;
58460;SDS011;45558;37.752;-97.822;2023-02-19T01:24:19;6.05;;;0.80;;
58460;SDS011;45558;37.752;-97.822;2023-02-19T01:26:45;5.65;;;0.73;;
58460;SDS011;45558;37.752;-97.822;2023-02-19T01:29:11;5.18;;;1.15;;
58460;SDS011;45558;37.752;-97.822;2023-02-19T01:31:37;4.35;;;0.60;;
58460;SDS011;45558;37.752;-97.822;2023-02-19T01:34:04;7.60;;;0.65;;
58460;SDS011;45558;37.752;-97.822;2023-02-19T01:36:31;6.53;;;0.47;;
58460;SDS011;45558;37.752;-97.822;2023-02-19T01:39:00;12.07;;;1.17;;
58460;SDS011;45558;37.752;-97.822;2023-02-19T01:41:29;6.10;;;0.85;;
58460;SDS011;45558;37.752;-97.822;2023-02-19T01:46:43;6.57;;;0.47;;
58460;SDS011;45558;37.752;-97.822;2023-02-19T01:49:14;10.32;;;0.70;;
58460;SDS011;45558;37.752;-97.822;2023-02-19T01:51:56;7.75;;;0.80;;
58460;SDS011;45558;37.752;-97.822;2023-02-19T01:54:35;5.75;;;0.60;;
58460;SDS011;45558;37.752;-97.822;2023-02-19T01:57:03;8.15;;;0.70;;
58460;SDS011;45558;37.752;-97.822;2023-02-19T01:59:31;4.13;;;0.30;;
58460;SDS011;45558;37.752;-97.822;2023-02-19T02:01:57;6.97;;;0.70;;
58460;SDS011;45558;37.752;-97.822;2023-02-19T02:04:24;3.05;;;0.50;;
58460;SDS011;45558;37.752;-97.822;2023-02-19T02:06:51;7.82;;;0.70;;
58460;SDS011;45558;37.752;-97.822;2023-02-19T02:09:19;8.77;;;0.93;;
58460;SDS011;45558;37.752;-97.822;2023-02-19T02:12:05;3.83;;;0.47;;
58460;SDS011;45558;37.752;-97.822;2023-02-19T02:14:33;8.20;;;0.73;;
58460;SDS011;45558;37.752;-97.822;2023-02-19T02:22:31;7.47;;;0.40;;
58460;SDS011;45558;37.752;-97.822;2023-02-19T02:25:15;5.65;;;0.73;;
58460;SDS011;45558;37.752;-97.822;2023-02-19T02:27:50;4.93;;;0.40;;
58460;SDS011;45558;37.752;-97.822;2023-02-19T02:33:10;7.43;;;0.60;;
58460;SDS011;45558;37.752;-97.822;2023-02-19T02:36:00;5.43;;;0.55;;
58460;SDS011;45558;37.752;-97.822;2023-02-19T02:38:41;2.10;;;0.40;;
58460;SDS011;45558;37.752;-97.822;2023-02-19T02:41:07;6.97;;;0.32;;
58460;SDS011;45558;37.752;-97.822;2023-02-19T02:43:33;4.15;;;0.65;;
58460;SDS011;45558;37.752;-97.822;2023-02-19T02:45:59;2.30;;;0.50;;
58460;SDS011;45558;37.752;-97.822;2023-02-19T02:53:50;3.08;;;0.50;;
58460;SDS011;45558;37.752;-97.822;2023-02-19T02:56:37;2.30;;;0.38;;
58460;SDS011;45558;37.752;-97.822;2023-02-19T02:59:05;5.95;;;0.50;;
58460;SDS011;45558;37.752;-97.822;2023-02-19T03:01:35;4.82;;;0.47;;
58460;SDS011;45558;37.752;-97.822;2023-02-19T03:04:26;6.18;;;1.05;;
58460;SDS011;45558;37.752;-97.822;2023-02-19T03:09:24;10.23;;;1.48;;
58460;SDS011;45558;37.752;-97.822;2023-02-19T03:11:57;7.63;;;2.22;;
58460;SDS011;45558;37.752;-97.822;2023-02-19T03:14:45;5.72;;;0.73;;
58460;SDS011;45558;37.752;-97.822;2023-02-19T03:17:38;8.88;;;1.70;;
58460;SDS011;45558;37.752;-97.822;2023-02-19T03:20:25;6.50;;;0.80;;
58460;SDS011;45558;37.752;-97.822;2023-02-19T03:22:52;4.60;;;0.60;;
58460;SDS011;45558;37.752;-97.822;2023-02-19T03:25:20;6.45;;;0.77;;
58460;SDS011;45558;37.752;-97.822;2023-02-19T03:31:30;3.88;;;0.60;;
58460;SDS011;45558;37.752;-97.822;2023-02-19T03:33:58;5.38;;;0.40;;
58460;SDS011;45558;37.752;-97.822;2023-02-19T03:36:29;6.05;;;0.70;;
58460;SDS011;45558;37.752;-97.822;2023-02-19T03:39:02;6.05;;;0.50;;
58460;SDS011;45558;37.752;-97.822;2023-02-19T03:41:35;4.88;;;0.70;;
58460;SDS011;45558;37.752;-97.822;2023-02-19T03:44:08;4.78;;;0.60;;
58460;SDS011;45558;37.752;-97.822;2023-02-19T03:46:43;5.10;;;0.60;;
58460;SDS011;45558;37.752;-97.822;2023-02-19T03:49:28;6.43;;;0.70;;
58460;SDS011;45558;37.752;-97.822;2023-02-19T03:54:46;4.32;;;0.50;;
58460;SDS011;45558;37.752;-97.822;2023-02-19T03:57:35;3.40;;;0.68;;
58460;SDS011;45558;37.752;-97.822;2023-02-19T04:00:08;4.65;;;0.65;;
58460;SDS011;45558;37.752;-97.822;2023-02-19T04:02:41;4.90;;;0.50;;
58460;SDS011;45558;37.752;-97.822;2023-02-19T04:05:26;7.78;;;1.63;;
58460;SDS011;45558;37.752;-97.822;2023-02-19T04:07:55;5.22;;;0.50;;
58460;SDS011;45558;37.752;-97.822;2023-02-19T04:10:23;6.95;;;0.88;;
58460;SDS011;45558;37.752;-97.822;2023-02-19T04:16:19;8.48;;;1.92;;
58460;SDS011;45558;37.752;-97.822;2023-02-19T04:18:48;3.55;;;0.40;;
58460;SDS011;45558;37.752;-97.822;2023-02-19T04:21:17;4.45;;;0.52;;
58460;SDS011;45558;37.752;-97.822;2023-02-19T04:23:43;2.67;;;0.30;;
58460;SDS011;45558;37.752;-97.822;2023-02-19T04:26:10;1.13;;;0.30;;
58460;SDS011;45558;37.752;-97.822;2023-02-19T04:28:36;3.70;;;0.32;;
58460;SDS011;45558;37.752;-97.822;2023-02-19T04:31:02;3.20;;;0.20;;
58460;SDS011;45558;37.752;-97.822;2023-02-19T04:33:28;9.27;;;1.27;;
58460;SDS011;45558;37.752;-97.822;2023-02-19T04:35:54;1.08;;;0.47;;
58460;SDS011;45558;37.752;-97.822;2023-02-19T04:38:19;2.60;;;1.20;;
58460;SDS011;45558;37.752;-97.822;2023-02-19T04:40:45;3.33;;;0.57;;
58460;SDS011;45558;37.752;-97.822;2023-02-19T04:46:33;3.08;;;1.20;;
58460;SDS011;45558;37.752;-97.822;2023-02-19T04:48:58;8.55;;;1.30;;
58460;SDS011;45558;37.752;-97.822;2023-02-19T04:51:24;5.32;;;1.20;;
58460;SDS011;45558;37.752;-97.822;2023-02-19T04:53:49;2.45;;;0.50;;
58460;SDS011;45558;37.752;-97.822;2023-02-19T04:56:15;5.53;;;0.45;;
58460;SDS011;45558;37.752;-97.822;2023-02-19T04:58:42;4.22;;;0.95;;
58460;SDS011;45558;37.752;-97.822;2023-02-19T05:01:09;2.67;;;0.60;;
58460;SDS011;45558;37.752;-97.822;2023-02-19T05:03:35;3.60;;;0.30;;
58460;SDS011;45558;37.752;-97.822;2023-02-19T05:06:05;2.38;;;0.40;;
58460;SDS011;45558;37.752;-97.822;2023-02-19T05:08:32;4.38;;;0.57;;
58460;SDS011;45558;37.752;-97.822;2023-02-19T05:10:59;3.45;;;0.40;;
58460;SDS011;45558;37.752;-97.822;2023-02-19T05:13:27;0.70;;;0.30;;
58460;SDS011;45558;37.752;-97.822;2023-02-19T05:15:53;1.48;;;0.65;;
58460;SDS011;45558;37.752;-97.822;2023-02-19T05:18:20;1.45;;;0.20;;
58460;SDS011;45558;37.752;-97.822;2023-02-19T05:20:46;1.95;;;0.20;;
58460;SDS011;45558;37.752;-97.822;2023-02-19T05:23:12;0.50;;;0.20;;
58460;SDS011;45558;37.752;-97.822;2023-02-19T05:25:37;1.40;;;0.25;;
58460;SDS011;45558;37.752;-97.822;2023-02-19T05:28:03;1.05;;;0.22;;
58460;SDS011;45558;37.752;-97.822;2023-02-19T05:30:41;1.90;;;0.30;;
58460;SDS011;45558;37.752;-97.822;2023-02-19T05:33:18;1.65;;;0.32;;
58460;SDS011;45558;37.752;-97.822;2023-02-19T05:35:48;1.20;;;0.20;;
58460;SDS011;45558;37.752;-97.822;2023-02-19T05:38:16;5.15;;;0.20;;
58460;SDS011;45558;37.752;-97.822;2023-02-19T05:40:42;1.13;;;0.25;;
58460;SDS011;45558;37.752;-97.822;2023-02-19T05:43:09;2.35;;;0.30;;
58460;SDS011;45558;37.752;-97.822;2023-02-19T05:45:36;1.98;;;0.20;;
58460;SDS011;45558;37.752;-97.822;2023-02-19T05:48:03;0.95;;;0.32;;
58460;SDS011;45558;37.752;-97.822;2023-02-19T05:50:33;1.80;;;0.30;;
58460;SDS011;45558;37.752;-97.822;2023-02-19T05:53:00;3.65;;;0.68;;
58460;SDS011;45558;37.752;-97.822;2023-02-19T05:55:27;0.85;;;0.30;;
58460;SDS011;45558;37.752;-97.822;2023-02-19T05:57:53;3.30;;;0.30;;
58460;SDS011;45558;37.752;-97.822;2023-02-19T06:00:19;2.53;;;0.30;;
58460;SDS011;45558;37.752;-97.822;2023-02-19T06:02:45;0.70;;;0.28;;
58460;SDS011;45558;37.752;-97.822;2023-02-19T06:05:11;2.25;;;0.22;;
58460;SDS011;45558;37.752;-97.822;2023-02-19T06:07:37;0.75;;;0.38;;
58460;SDS011;45558;37.752;-97.822;2023-02-19T06:10:06;0.38;;;0.20;;
58460;SDS011;45558;37.752;-97.822;2023-02-19T06:12:33;0.20;;;0.13;;
58460;SDS011;45558;37.752;-97.822;2023-02-19T06:14:58;2.50;;;0.20;;
58460;SDS011;45558;37.752;-97.822;2023-02-19T06:17:24;3.17;;;0.20;;
58460;SDS011;45558;37.752;-97.822;2023-02-19T06:19:50;0.50;;;0.10;;
58460;SDS011;45558;37.752;-97.822;2023-02-19T06:22:15;3.55;;;0.20;;
58460;SDS011;45558;37.752;-97.822;2023-02-19T06:24:41;2.05;;;0.32;;
58460;SDS011;45558;37.752;-97.822;2023-02-19T06:27:07;3.40;;;1.55;;
58460;SDS011;45558;37.752;-97.822;2023-02-19T06:29:33;3.55;;;0.15;;
58460;SDS011;45558;37.752;-97.822;2023-02-19T06:32:02;1.75;;;0.30;;
58460;SDS011;45558;37.752;-97.822;2023-02-19T06:34:29;0.85;;;0.20;;
58460;SDS011;45558;37.752;-97.822;2023-02-19T06:36:54;1.75;;;0.20;;
58460;SDS011;45558;37.752;-97.822;2023-02-19T06:39:20;8.27;;;1.65;;
58460;SDS011;45558;37.752;-97.822;2023-02-19T06:41:46;1.92;;;0.30;;
58460;SDS011;45558;37.752;-97.822;2023-02-19T06:44:12;4.05;;;0.40;;
58460;SDS011;45558;37.752;-97.822;2023-02-19T06:46:38;0.90;;;0.60;;
58460;SDS011;45558;37.752;-97.822;2023-02-19T06:49:05;3.95;;;0.70;;
58460;SDS011;45558;37.752;-97.822;2023-02-19T06:51:31;2.65;;;0.80;;
58460;SDS011;45558;37.752;-97.822;2023-02-19T06:53:57;4.55;;;0.70;;
58460;SDS011;45558;37.752;-97.822;2023-02-19T06:56:27;1.35;;;0.80;;
58460;SDS011;45558;37.752;-97.822;2023-02-19T06:58:55;2.10;;;0.70;;
58460;SDS011;45558;37.752;-97.822;2023-02-19T07:01:24;7.78;;;0.80;;
58460;SDS011;45558;37.752;-97.822;2023-02-19T07:03:51;2.95;;;0.52;;
58460;SDS011;45558;37.752;-97.822;2023-02-19T07:06:18;3.22;;;0.50;;
58460;SDS011;45558;37.752;-97.822;2023-02-19T07:08:44;1.20;;;0.60;;
58460;SDS011;45558;37.752;-97.822;2023-02-19T07:11:10;2.00;;;0.50;;
58460;SDS011;45558;37.752;-97.822;2023-02-19T07:13:36;1.25;;;0.50;;
58460;SDS011;45558;37.752;-97.822;2023-02-19T07:16:03;1.15;;;0.50;;
58460;SDS011;45558;37.752;-97.822;2023-02-19T07:18:32;5.30;;;0.40;;
58460;SDS011;45558;37.752;-97.822;2023-02-19T07:21:04;1.20;;;0.50;;
58460;SDS011;45558;37.752;-97.822;2023-02-19T07:23:35;0.55;;;0.38;;
58460;SDS011;45558;37.752;-97.822;2023-02-19T07:26:00;1.58;;;0.50;;
58460;SDS011;45558;37.752;-97.822;2023-02-19T07:28:26;1.27;;;0.40;;
58460;SDS011;45558;37.752;-97.822;2023-02-19T07:30:52;0.52;;;0.30;;
58460;SDS011;45558;37.752;-97.822;2023-02-19T07:33:18;3.55;;;0.60;;
58460;SDS011;45558;37.752;-97.822;2023-02-19T07:35:45;1.90;;;0.35;;
58460;SDS011;45558;37.752;-97.822;2023-02-19T07:38:14;1.92;;;0.70;;
58460;SDS011;45558;37.752;-97.822;2023-02-19T07:40:56;0.75;;;0.50;;
58460;SDS011;45558;37.752;-97.822;2023-02-19T07:43:24;0.77;;;0.40;;
58460;SDS011;45558;37.752;-97.822;2023-02-19T07:45:50;0.88;;;0.43;;
58460;SDS011;45558;37.752;-97.822;2023-02-19T07:48:16;2.38;;;0.93;;
58460;SDS011;45558;37.752;-97.822;2023-02-19T07:50:49;1.42;;;0.57;;
58460;SDS011;45558;37.752;-97.822;2023-02-19T07:53:19;0.55;;;0.40;;
58460;SDS011;45558;37.752;-97.822;2023-02-19T07:55:45;2.03;;;0.47;;
58460;SDS011;45558;37.752;-97.822;2023-02-19T07:58:11;1.13;;;0.80;;
58460;SDS011;45558;37.752;-97.822;2023-02-19T08:00:36;0.70;;;0.50;;
58460;SDS011;45558;37.752;-97.822;2023-02-19T08:03:03;0.68;;;0.45;;
58460;SDS011;45558;37.752;-97.822;2023-02-19T08:05:33;1.30;;;0.63;;
58460;SDS011;45558;37.752;-97.822;2023-02-19T08:08:01;1.88;;;0.60;;
58460;SDS011;45558;37.752;-97.822;2023-02-19T08:10:30;1.13;;;0.77;;
58460;SDS011;45558;37.752;-97.822;2023-02-19T08:13:14;3.50;;;2.90;;
58460;SDS011;45558;37.752;-97.822;2023-02-19T08:15:44;4.15;;;0.50;;
58460;SDS011;45558;37.752;-97.822;2023-02-19T08:18:10;2.10;;;0.80;;
58460;SDS011;45558;37.752;-97.822;2023-02-19T08:20:37;2.33;;;0.85;;
58460;SDS011;45558;37.752;-97.822;2023-02-19T08:23:03;2.83;;;0.80;;
58460;SDS011;45558;37.752;-97.822;2023-02-19T08:25:29;2.28;;;0.70;;
58460;SDS011;45558;37.752;-97.822;2023-02-19T08:27:55;2.72;;;0.60;;
58460;SDS011;45558;37.752;-97.822;2023-02-19T08:30:21;1.83;;;0.68;;
58460;SDS011;45558;37.752;-97.822;2023-02-19T08:32:46;5.18;;;0.57;;
58460;SDS011;45558;37.752;-97.822;2023-02-19T08:35:12;5.53;;;0.73;;
58460;SDS011;45558;37.752;-97.822;2023-02-19T08:37:38;1.02;;;0.82;;
58460;SDS011;45558;37.752;-97.822;2023-02-19T08:40:04;3.13;;;0.68;;
58460;SDS011;45558;37.752;-97.822;2023-02-19T08:42:30;0.77;;;0.55;;
58460;SDS011;45558;37.752;-97.822;2023-02-19T08:44:55;1.98;;;0.60;;
58460;SDS011;45558;37.752;-97.822;2023-02-19T08:47:21;2.20;;;0.60;;
58460;SDS011;45558;37.752;-97.822;2023-02-19T08:49:47;1.75;;;0.90;;
58460;SDS011;45558;37.752;-97.822;2023-02-19T08:52:12;3.70;;;0.60;;
58460;SDS011;45558;37.752;-97.822;2023-02-19T08:54:38;6.65;;;0.50;;
58460;SDS011;45558;37.752;-97.822;2023-02-19T08:57:04;5.40;;;0.82;;
58460;SDS011;45558;37.752;-97.822;2023-02-19T08:59:30;2.45;;;0.60;;
58460;SDS011;45558;37.752;-97.822;2023-02-19T09:01:59;6.65;;;0.63;;
58460;SDS011;45558;37.752;-97.822;2023-02-19T09:04:25;3.95;;;0.68;;
58460;SDS011;45558;37.752;-97.822;2023-02-19T09:06:51;2.53;;;0.57;;
58460;SDS011;45558;37.752;-97.822;2023-02-19T09:09:17;2.90;;;0.70;;
58460;SDS011;45558;37.752;-97.822;2023-02-19T09:11:43;4.93;;;0.75;;
58460;SDS011;45558;37.752;-97.822;2023-02-19T09:14:09;8.60;;;1.45;;
58460;SDS011;45558;37.752;-97.822;2023-02-19T09:16:35;3.03;;;0.60;;
58460;SDS011;45558;37.752;-97.822;2023-02-19T09:19:01;9.55;;;0.60;;
58460;SDS011;45558;37.752;-97.822;2023-02-19T09:21:28;2.80;;;0.68;;
58460;SDS011;45558;37.752;-97.822;2023-02-19T09:23:54;7.15;;;0.90;;
58460;SDS011;45558;37.752;-97.822;2023-02-19T09:26:19;4.60;;;0.80;;
58460;SDS011;45558;37.752;-97.822;2023-02-19T09:28:45;5.00;;;1.40;;
58460;SDS011;45558;37.752;-97.822;2023-02-19T09:31:13;4.82;;;1.10;;
58460;SDS011;45558;37.752;-97.822;2023-02-19T09:33:46;3.65;;;0.75;;
58460;SDS011;45558;37.752;-97.822;2023-02-19T09:36:15;5.95;;;0.70;;
58460;SDS011;45558;37.752;-97.822;2023-02-19T09:38:42;3.65;;;0.80;;
58460;SDS011;45558;37.752;-97.822;2023-02-19T09:41:13;4.13;;;0.82;;
58460;SDS011;45558;37.752;-97.822;2023-02-19T09:43:41;4.05;;;0.60;;
58460;SDS011;45558;37.752;-97.822;2023-02-19T09:46:21;4.85;;;1.08;;
58460;SDS011;45558;37.752;-97.822;2023-02-19T09:49:10;2.95;;;0.30;;
58460;SDS011;45558;37.752;-97.822;2023-02-19T09:51:38;3.05;;;0.77;;
58460;SDS011;45558;37.752;-97.822;2023-02-19T09:54:11;4.85;;;0.75;;
58460;SDS011;45558;37.752;-97.822;2023-02-19T09:56:49;1.90;;;0.50;;
58460;SDS011;45558;37.752;-97.822;2023-02-19T09:59:36;7.28;;;0.50;;
58460;SDS011;45558;37.752;-97.822;2023-02-19T10:04:40;6.55;;;0.60;;
58460;SDS011;45558;37.752;-97.822;2023-02-19T10:07:17;1.92;;;0.47;;
58460;SDS011;45558;37.752;-97.822;2023-02-19T10:10:01;4.30;;;0.70;;
58460;SDS011;45558;37.752;-97.822;2023-02-19T10:12:46;3.75;;;0.70;;
58460;SDS011;45558;37.752;-97.822;2023-02-19T10:18:20;1.15;;;0.35;;
58460;SDS011;45558;37.752;-97.822;2023-02-19T10:20:48;4.28;;;1.35;;
58460;SDS011;45558;37.752;-97.822;2023-02-19T10:23:15;7.18;;;0.77;;
58460;SDS011;45558;37.752;-97.822;2023-02-19T10:25:46;6.30;;;1.02;;
58460;SDS011;45558;37.752;-97.822;2023-02-19T10:28:22;2.10;;;0.30;;
58460;SDS011;45558;37.752;-97.822;2023-02-19T10:30:59;2.60;;;0.40;;
58460;SDS011;45558;37.752;-97.822;2023-02-19T10:33:26;1.90;;;0.60;;
58460;SDS011;45558;37.752;-97.822;2023-02-19T10:38:20;3.70;;;0.30;;
58460;SDS011;45558;37.752;-97.822;2023-02-19T10:40:47;2.30;;;0.30;;
58460;SDS011;45558;37.752;-97.822;2023-02-19T10:43:24;3.47;;;0.38;;
58460;SDS011;45558;37.752;-97.822;2023-02-19T10:45:57;0.43;;;0.30;;
58460;SDS011;45558;37.752;-97.822;2023-02-19T10:48:39;0.73;;;0.25;;
58460;SDS011;45558;37.752;-97.822;2023-02-19T10:51:10;2.17;;;0.20;;
58460;SDS011;45558;37.752;-97.822;2023-02-19T10:53:50;4.82;;;0.80;;
58460;SDS011;45558;37.752;-97.822;2023-02-19T10:56:27;1.65;;;0.60;;
58460;SDS011;45558;37.752;-97.822;2023-02-19T10:58:55;1.55;;;0.60;;
58460;SDS011;45558;37.752;-97.822;2023-02-19T11:02:02;2.10;;;0.82;;
58460;SDS011;45558;37.752;-97.822;2023-02-19T11:04:33;8.35;;;0.70;;
58460;SDS011;45558;37.752;-97.822;2023-02-19T11:09:46;1.10;;;0.40;;
58460;SDS011;45558;37.752;-97.822;2023-02-19T11:12:21;3.08;;;1.50;;
58460;SDS011;45558;37.752;-97.822;2023-02-19T11:14:49;2.00;;;0.43;;
58460;SDS011;45558;37.752;-97.822;2023-02-19T11:19:52;6.63;;;1.38;;
58460;SDS011;45558;37.752;-97.822;2023-02-19T11:22:32;7.80;;;1.30;;
58460;SDS011;45558;37.752;-97.822;2023-02-19T11:25:07;4.90;;;0.55;;
58460;SDS011;45558;37.752;-97.822;2023-02-19T11:28:00;4.05;;;0.70;;
58460;SDS011;45558;37.752;-97.822;2023-02-19T11:37:57;4.10;;;0.50;;
58460;SDS011;45558;37.752;-97.822;2023-02-19T11:50:02;2.13;;;0.70;;
